createdAt,value
2019-05-20T00:00:32.428Z,10.53
2019-05-20T00:03:02.870Z,12.63
2019-05-20T00:05:32.463Z,8.93
2019-05-20T00:08:03.192Z,8.30
2019-05-20T00:10:32.690Z,8.35
2019-05-20T00:13:02.505Z,9.08
2019-05-20T00:15:32.204Z,9.80
2019-05-20T00:18:01.687Z,9.20
2019-05-20T00:20:31.192Z,9.40
2019-05-20T00:23:00.734Z,8.95
2019-05-20T00:25:30.298Z,9.20
2019-05-20T00:27:59.774Z,7.47
2019-05-20T00:30:30.255Z,8.30
2019-05-20T00:32:59.739Z,8.87
2019-05-20T00:35:29.834Z,10.27
2019-05-20T00:37:59.319Z,8.05
2019-05-20T00:40:28.811Z,8.83
2019-05-20T00:42:58.288Z,9.30
2019-05-20T00:45:27.783Z,11.67
2019-05-20T00:47:57.263Z,9.97
2019-05-20T00:50:27.737Z,12.27
2019-05-20T00:52:57.333Z,10.50
2019-05-20T00:55:29.360Z,9.60
2019-05-20T00:57:59.317Z,8.63
2019-05-20T01:00:28.824Z,9.83
2019-05-20T01:02:58.379Z,10.03
2019-05-20T01:05:28.003Z,8.07
2019-05-20T01:07:57.559Z,8.50
2019-05-20T01:10:27.831Z,10.03
2019-05-20T01:12:57.335Z,7.83
2019-05-20T01:15:26.908Z,8.93
2019-05-20T01:17:56.402Z,8.33
2019-05-20T01:20:25.908Z,8.80
2019-05-20T01:22:55.444Z,11.00
2019-05-20T01:25:26.006Z,7.40
2019-05-20T01:27:55.529Z,11.90
2019-05-20T01:30:25.387Z,10.80
2019-05-20T01:32:54.892Z,12.20
2019-05-20T01:35:24.424Z,8.27
2019-05-20T01:37:53.949Z,10.13
2019-05-20T01:40:23.637Z,11.53
2019-05-20T01:42:53.682Z,11.40
2019-05-20T01:45:23.220Z,9.03
2019-05-20T01:47:52.755Z,11.20
2019-05-20T01:50:22.236Z,10.47
2019-05-20T01:52:51.749Z,11.37
2019-05-20T01:55:21.260Z,10.40
2019-05-20T01:57:50.756Z,9.13
2019-05-20T02:00:22.060Z,8.23
2019-05-20T02:02:51.565Z,10.93
2019-05-20T02:05:22.494Z,8.67
2019-05-20T02:07:52.080Z,11.33
2019-05-20T02:10:22.234Z,10.88
2019-05-20T02:12:52.694Z,10.00
2019-05-20T02:15:28.845Z,8.30
2019-05-20T02:17:58.501Z,9.75
2019-05-20T02:20:28.146Z,9.67
2019-05-20T02:23:14.490Z,8.53
2019-05-20T02:25:46.857Z,10.60
2019-05-20T02:28:17.533Z,9.10
2019-05-20T02:30:47.014Z,10.90
2019-05-20T02:33:16.738Z,9.43
2019-05-20T02:35:46.235Z,12.50
2019-05-20T02:38:15.746Z,14.10
2019-05-20T02:40:45.356Z,12.50
2019-05-20T02:43:15.986Z,11.80
2019-05-20T02:45:45.490Z,9.80
2019-05-20T02:48:15.022Z,8.67
2019-05-20T02:50:44.556Z,8.80
2019-05-20T02:53:14.045Z,9.43
2019-05-20T02:55:43.586Z,9.50
2019-05-20T02:58:13.128Z,9.93
2019-05-20T03:00:42.660Z,10.23
2019-05-20T03:03:12.143Z,11.93
2019-05-20T03:05:41.706Z,9.53
2019-05-20T03:08:11.204Z,11.03
2019-05-20T03:10:40.745Z,13.00
2019-05-20T03:13:10.227Z,9.13
2019-05-20T03:15:39.758Z,13.57
2019-05-20T03:18:09.218Z,9.75
2019-05-20T03:20:38.719Z,11.30
2019-05-20T03:23:08.288Z,9.75
2019-05-20T03:25:37.807Z,11.80
2019-05-20T03:28:07.287Z,10.10
2019-05-20T03:30:36.808Z,10.93
2019-05-20T03:33:06.282Z,13.25
2019-05-20T03:35:36.458Z,10.85
2019-05-20T03:38:05.972Z,13.17
2019-05-20T03:40:35.498Z,13.58
2019-05-20T03:43:04.968Z,12.35
2019-05-20T03:45:35.455Z,13.05
2019-05-20T03:48:05.073Z,14.00
2019-05-20T03:50:34.609Z,11.57
2019-05-20T03:53:04.232Z,13.80
2019-05-20T03:55:33.722Z,13.83
2019-05-20T03:58:03.246Z,15.73
2019-05-20T04:00:46.346Z,11.80
2019-05-20T04:03:16.530Z,8.80
2019-05-20T04:05:46.101Z,10.90
2019-05-20T04:08:15.674Z,8.60
2019-05-20T04:10:45.221Z,10.00
2019-05-20T04:13:14.705Z,11.17
2019-05-20T04:15:44.192Z,9.00
2019-05-20T04:18:13.678Z,10.10
2019-05-20T04:20:43.182Z,10.23
2019-05-20T04:23:12.705Z,9.50
2019-05-20T04:25:42.287Z,9.17
2019-05-20T04:28:11.733Z,9.40
2019-05-20T04:30:41.460Z,10.67
2019-05-20T04:33:11.027Z,10.80
2019-05-20T04:35:40.657Z,9.77
2019-05-20T04:38:10.174Z,9.83
2019-05-20T04:40:39.994Z,8.38
2019-05-20T04:43:09.552Z,10.10
2019-05-20T04:45:39.112Z,12.25
2019-05-20T04:48:08.593Z,12.15
2019-05-20T04:50:38.092Z,12.77
2019-05-20T04:53:07.797Z,11.50
2019-05-20T04:55:37.317Z,12.63
2019-05-20T04:58:06.878Z,14.30
2019-05-20T05:00:49.961Z,18.47
2019-05-20T05:03:19.456Z,15.50
2019-05-20T05:05:50.071Z,15.77
2019-05-20T05:08:19.797Z,14.83
2019-05-20T05:10:49.710Z,16.80
2019-05-20T05:13:19.297Z,19.75
2019-05-20T05:15:48.962Z,19.60
2019-05-20T05:18:18.641Z,21.17
2019-05-20T05:20:48.254Z,25.37
2019-05-20T05:23:17.887Z,21.90
2019-05-20T05:25:47.470Z,27.27
2019-05-20T05:28:17.032Z,23.63
2019-05-20T05:30:46.979Z,21.57
2019-05-20T05:33:16.539Z,23.47
2019-05-20T05:35:53.289Z,23.40
2019-05-20T05:38:17.440Z,26.73
2019-05-20T05:40:47.138Z,23.40
2019-05-20T05:43:16.634Z,26.20
2019-05-20T05:45:46.144Z,28.67
2019-05-20T05:48:15.769Z,21.23
2019-05-20T05:50:45.273Z,24.13
2019-05-20T05:53:14.782Z,21.20
2019-05-20T05:55:44.289Z,21.97
2019-05-20T05:58:14.752Z,20.90
2019-05-20T06:00:44.411Z,20.73
2019-05-20T06:03:13.914Z,26.62
2019-05-20T06:05:43.512Z,23.97
2019-05-20T06:08:13.053Z,24.77
2019-05-20T06:10:42.535Z,22.80
2019-05-20T06:13:12.060Z,20.17
2019-05-20T06:15:41.538Z,20.05
2019-05-20T06:18:11.117Z,19.90
2019-05-20T06:20:40.708Z,21.17
2019-05-20T06:23:10.270Z,17.73
2019-05-20T06:25:39.723Z,21.67
2019-05-20T06:28:09.234Z,20.20
2019-05-20T06:30:41.428Z,20.13
2019-05-20T06:33:11.234Z,19.63
2019-05-20T06:35:40.785Z,18.43
2019-05-20T06:38:21.774Z,17.80
2019-05-20T06:40:51.347Z,19.17
2019-05-20T06:43:20.921Z,20.70
2019-05-20T06:45:50.413Z,21.10
2019-05-20T06:48:19.971Z,16.63
2019-05-20T06:50:49.477Z,19.50
2019-05-20T06:53:18.996Z,18.63
2019-05-20T06:55:48.484Z,17.52
2019-05-20T06:58:18.190Z,21.10
2019-05-20T07:00:47.693Z,18.83
2019-05-20T07:03:17.641Z,18.20
2019-05-20T07:05:47.199Z,21.20
2019-05-20T07:08:16.734Z,15.87
2019-05-20T07:10:46.241Z,17.13
2019-05-20T07:13:16.441Z,17.47
2019-05-20T07:15:47.018Z,19.47
2019-05-20T07:18:16.528Z,23.87
2019-05-20T07:20:46.038Z,20.20
2019-05-20T07:23:15.544Z,19.40
2019-05-20T07:25:45.038Z,18.70
2019-05-20T07:28:14.619Z,21.55
2019-05-20T07:30:44.540Z,17.30
2019-05-20T07:33:14.065Z,18.10
2019-05-20T07:35:43.692Z,16.10
2019-05-20T07:38:13.302Z,18.12
2019-05-20T07:40:42.809Z,22.48
2019-05-20T07:43:12.323Z,16.57
2019-05-20T07:45:42.079Z,27.17
2019-05-20T07:48:11.668Z,22.42
2019-05-20T07:50:42.271Z,21.07
2019-05-20T07:53:12.558Z,18.33
2019-05-20T07:55:51.394Z,18.80
2019-05-20T07:58:22.438Z,20.23
2019-05-20T08:00:52.078Z,29.43
2019-05-20T08:03:21.663Z,20.93
2019-05-20T08:05:51.154Z,20.20
2019-05-20T08:08:20.734Z,18.80
2019-05-20T08:10:50.279Z,16.70
2019-05-20T08:13:19.798Z,16.03
2019-05-20T08:15:49.441Z,21.40
2019-05-20T08:18:20.231Z,16.73
2019-05-20T08:20:50.095Z,18.47
2019-05-20T08:23:19.679Z,16.60
2019-05-20T08:25:49.172Z,16.10
2019-05-20T08:28:18.690Z,18.70
2019-05-20T08:30:48.257Z,18.23
2019-05-20T08:33:17.787Z,20.80
2019-05-20T08:35:47.301Z,14.87
2019-05-20T08:38:17.194Z,17.47
2019-05-20T08:40:48.723Z,16.20
2019-05-20T08:43:17.989Z,15.13
2019-05-20T08:45:47.478Z,15.90
2019-05-20T08:48:16.989Z,18.87
2019-05-20T08:50:46.483Z,16.73
2019-05-20T08:53:15.989Z,17.50
2019-05-20T08:55:45.608Z,15.90
2019-05-20T08:58:15.838Z,16.53
2019-05-20T09:00:45.403Z,36.03
2019-05-20T09:03:14.893Z,20.07
2019-05-20T09:05:44.393Z,17.55
2019-05-20T09:08:13.888Z,15.30
2019-05-20T09:10:43.403Z,15.87
2019-05-20T09:13:12.979Z,16.48
2019-05-20T09:15:45.343Z,16.73
2019-05-20T09:18:13.982Z,13.08
2019-05-20T09:20:43.658Z,17.33
2019-05-20T09:23:13.157Z,14.43
2019-05-20T09:25:42.771Z,17.80
2019-05-20T09:28:13.248Z,13.17
2019-05-20T09:30:42.874Z,14.95
2019-05-20T09:33:12.452Z,13.53
2019-05-20T09:35:42.122Z,10.85
2019-05-20T09:38:20.102Z,14.27
2019-05-20T09:40:47.228Z,13.30
2019-05-20T09:43:16.793Z,12.87
2019-05-20T09:45:46.385Z,12.70
2019-05-20T09:48:16.166Z,12.10
2019-05-20T09:50:45.745Z,13.48
2019-05-20T09:53:15.240Z,12.03
2019-05-20T09:55:44.748Z,14.23
2019-05-20T09:58:14.239Z,13.40
2019-05-20T10:00:43.826Z,14.00
2019-05-20T10:03:13.323Z,12.93
2019-05-20T10:05:42.914Z,11.97
2019-05-20T10:08:12.426Z,14.93
2019-05-20T10:10:42.043Z,14.03
2019-05-20T10:13:11.591Z,13.07
2019-05-20T10:15:41.103Z,14.55
2019-05-20T10:18:10.643Z,13.35
2019-05-20T10:20:40.224Z,15.70
2019-05-20T10:23:09.706Z,13.97
2019-05-20T10:25:39.301Z,12.70
2019-05-20T10:28:08.923Z,12.27
2019-05-20T10:30:38.504Z,10.95
2019-05-20T10:33:10.544Z,14.07
2019-05-20T10:35:39.225Z,12.50
2019-05-20T10:38:08.728Z,12.05
2019-05-20T10:40:38.462Z,11.73
2019-05-20T10:43:07.999Z,12.13
2019-05-20T10:45:37.596Z,10.90
2019-05-20T10:48:08.906Z,11.80
2019-05-20T10:50:38.762Z,10.83
2019-05-20T10:53:08.259Z,10.43
2019-05-20T10:55:37.821Z,10.50
2019-05-20T10:58:07.322Z,12.23
2019-05-20T11:00:36.815Z,11.27
2019-05-20T11:03:06.388Z,10.38
2019-05-20T11:05:35.877Z,13.30
2019-05-20T11:08:05.468Z,10.10
2019-05-20T11:10:34.961Z,13.28
2019-05-20T11:13:04.545Z,10.85
2019-05-20T11:15:34.044Z,11.97
2019-05-20T11:18:04.100Z,13.53
2019-05-20T11:20:33.591Z,10.88
2019-05-20T11:23:03.083Z,13.27
2019-05-20T11:25:35.861Z,9.37
2019-05-20T11:28:05.461Z,12.13
2019-05-20T11:30:35.017Z,9.80
2019-05-20T11:33:04.615Z,9.90
2019-05-20T11:35:34.118Z,10.88
2019-05-20T11:38:04.526Z,10.43
2019-05-20T11:40:33.979Z,9.70
2019-05-20T11:43:03.983Z,11.17
2019-05-20T11:45:33.473Z,10.50
2019-05-20T11:48:03.005Z,11.30
2019-05-20T11:50:32.610Z,12.30
2019-05-20T11:53:02.208Z,8.83
2019-05-20T11:55:31.706Z,8.53
2019-05-20T11:58:15.470Z,8.50
2019-05-20T12:00:33.141Z,8.30
2019-05-20T12:03:02.676Z,8.60
2019-05-20T12:05:32.274Z,8.90
2019-05-20T12:08:01.763Z,7.77
2019-05-20T12:10:31.245Z,9.97
2019-05-20T12:13:00.749Z,8.60
2019-05-20T12:15:31.202Z,8.93
2019-05-20T12:18:00.701Z,8.43
2019-05-20T12:20:30.201Z,8.70
2019-05-20T12:23:00.101Z,8.83
2019-05-20T12:25:30.362Z,10.20
2019-05-20T12:28:00.276Z,8.47
2019-05-20T12:30:30.258Z,9.13
2019-05-20T12:33:17.949Z,7.95
2019-05-20T12:35:31.666Z,8.67
2019-05-20T12:38:01.578Z,9.33
2019-05-20T12:40:31.055Z,9.47
2019-05-20T12:43:00.559Z,8.13
2019-05-20T12:45:31.139Z,10.77
2019-05-20T12:48:01.536Z,7.97
2019-05-20T12:50:31.093Z,7.57
2019-05-20T12:53:02.339Z,10.10
2019-05-20T12:55:31.919Z,7.90
2019-05-20T12:58:01.417Z,8.77
2019-05-20T13:00:31.120Z,8.15
2019-05-20T13:03:01.425Z,8.25
2019-05-20T13:05:31.137Z,6.72
2019-05-20T13:08:01.455Z,6.55
2019-05-20T13:10:32.509Z,6.40
2019-05-20T13:13:03.315Z,7.57
2019-05-20T13:15:32.861Z,7.93
2019-05-20T13:18:02.380Z,7.27
2019-05-20T13:20:31.910Z,8.33
2019-05-20T13:23:01.829Z,7.90
2019-05-20T13:25:31.731Z,7.30
2019-05-20T13:28:01.463Z,7.15
2019-05-20T13:30:31.453Z,6.90
2019-05-20T13:33:01.861Z,7.27
2019-05-20T13:35:31.472Z,6.75
2019-05-20T13:38:01.420Z,7.15
2019-05-20T13:40:45.982Z,6.97
2019-05-20T13:43:02.878Z,6.60
2019-05-20T13:45:32.400Z,7.10
2019-05-20T13:48:02.849Z,7.37
2019-05-20T13:50:32.341Z,6.63
2019-05-20T13:53:02.235Z,8.40
2019-05-20T13:55:31.718Z,6.60
2019-05-20T13:58:01.376Z,9.78
2019-05-20T14:00:31.484Z,6.92
2019-05-20T14:03:01.453Z,6.77
2019-05-20T14:05:31.605Z,7.15
2019-05-20T14:08:01.486Z,7.00
2019-05-20T14:10:31.983Z,6.35
2019-05-20T14:13:02.639Z,6.78
2019-05-20T14:15:32.184Z,6.67
2019-05-20T14:18:02.715Z,7.97
2019-05-20T14:20:32.227Z,7.13
2019-05-20T14:23:02.239Z,6.63
2019-05-20T14:25:32.185Z,7.78
2019-05-20T14:28:02.195Z,6.30
2019-05-20T14:30:32.147Z,7.78
2019-05-20T14:33:03.133Z,6.93
2019-05-20T14:35:32.745Z,8.57
2019-05-20T14:38:03.380Z,6.97
2019-05-20T14:40:32.883Z,7.40
2019-05-20T14:43:02.715Z,7.03
2019-05-20T14:45:32.295Z,6.50
2019-05-20T14:48:02.438Z,6.22
2019-05-20T14:50:32.133Z,6.83
2019-05-20T14:53:02.463Z,9.25
2019-05-20T14:55:41.821Z,8.23
2019-05-20T14:58:03.521Z,7.37
2019-05-20T15:00:33.054Z,7.83
2019-05-20T15:03:02.546Z,6.40
2019-05-20T15:05:32.395Z,6.78
2019-05-20T15:08:02.308Z,6.90
2019-05-20T15:10:32.413Z,6.65
2019-05-20T15:13:03.113Z,6.45
2019-05-20T15:15:32.884Z,6.20
2019-05-20T15:18:02.413Z,6.83
2019-05-20T15:20:32.371Z,8.68
2019-05-20T15:23:02.880Z,7.08
2019-05-20T15:25:32.430Z,6.80
2019-05-20T15:28:02.389Z,7.90
2019-05-20T15:30:32.550Z,7.40
2019-05-20T15:33:03.173Z,7.10
2019-05-20T15:35:32.748Z,6.80
2019-05-20T15:38:02.441Z,6.63
2019-05-20T15:40:32.476Z,7.05
2019-05-20T15:43:02.843Z,6.92
2019-05-20T15:45:32.461Z,7.07
2019-05-20T15:48:03.039Z,6.35
2019-05-20T15:50:32.548Z,7.40
2019-05-20T15:53:03.398Z,7.80
2019-05-20T15:55:33.941Z,7.40
2019-05-20T15:58:03.820Z,7.40
2019-05-20T16:00:33.332Z,6.93
2019-05-20T16:03:02.950Z,7.90
2019-05-20T16:05:32.554Z,8.70
2019-05-20T16:08:03.091Z,7.30
2019-05-20T16:10:32.630Z,6.00
2019-05-20T16:13:03.006Z,5.72
2019-05-20T16:15:33.181Z,6.65
2019-05-20T16:18:03.202Z,8.50
2019-05-20T16:20:32.875Z,6.13
2019-05-20T16:23:02.571Z,6.63
2019-05-20T16:25:32.306Z,6.70
2019-05-20T16:28:01.993Z,6.50
2019-05-20T16:30:31.571Z,8.57
2019-05-20T16:33:01.189Z,9.00
2019-05-20T16:35:31.104Z,6.57
2019-05-20T16:38:02.091Z,5.57
2019-05-20T16:40:31.760Z,5.83
2019-05-20T16:43:01.944Z,4.87
2019-05-20T16:45:31.497Z,7.47
2019-05-20T16:48:01.365Z,5.60
2019-05-20T16:50:32.034Z,6.17
2019-05-20T16:53:01.575Z,6.67
2019-05-20T16:55:31.053Z,6.67
2019-05-20T16:58:00.588Z,6.40
2019-05-20T17:00:32.177Z,6.90
2019-05-20T17:03:01.853Z,6.47
2019-05-20T17:05:31.531Z,7.00
2019-05-20T17:08:01.680Z,6.70
2019-05-20T17:10:31.266Z,5.50
2019-05-20T17:13:01.205Z,6.08
2019-05-20T17:15:30.696Z,5.70
2019-05-20T17:18:00.307Z,6.80
2019-05-20T17:20:29.886Z,6.57
2019-05-20T17:22:59.393Z,6.17
2019-05-20T17:25:28.896Z,6.60
2019-05-20T17:27:58.435Z,6.23
2019-05-20T17:30:27.919Z,6.70
2019-05-20T17:32:57.731Z,5.37
2019-05-20T17:35:27.436Z,7.50
2019-05-20T17:37:56.988Z,5.73
2019-05-20T17:40:26.548Z,11.80
2019-05-20T17:42:56.063Z,7.33
2019-05-20T17:45:25.555Z,8.80
2019-05-20T17:47:55.075Z,7.53
2019-05-20T17:50:24.625Z,7.70
2019-05-20T17:52:54.199Z,6.80
2019-05-20T17:55:23.912Z,7.17
2019-05-20T17:57:53.802Z,7.97
2019-05-20T18:00:23.552Z,9.33
2019-05-20T18:02:53.432Z,7.45
2019-05-20T18:05:22.919Z,9.00
2019-05-20T18:07:52.409Z,8.03
2019-05-20T18:10:24.869Z,9.30
2019-05-20T18:12:54.328Z,9.30
2019-05-20T18:15:23.844Z,8.93
2019-05-20T18:17:53.393Z,9.95
2019-05-20T18:20:24.051Z,8.70
2019-05-20T18:22:53.568Z,9.28
2019-05-20T18:25:23.074Z,10.90
2019-05-20T18:27:52.619Z,11.75
2019-05-20T18:30:22.291Z,12.00
2019-05-20T18:32:51.806Z,9.25
2019-05-20T18:35:21.311Z,11.27
2019-05-20T18:37:50.901Z,10.10
2019-05-20T18:40:20.569Z,9.35
2019-05-20T18:42:50.162Z,11.50
2019-05-20T18:45:19.649Z,10.82
2019-05-20T18:47:49.155Z,11.87
2019-05-20T18:50:18.835Z,11.10
2019-05-20T18:52:48.370Z,10.08
2019-05-20T18:55:17.857Z,10.58
2019-05-20T18:57:47.373Z,9.53
2019-05-20T19:00:17.645Z,9.43
2019-05-20T19:02:47.931Z,10.18
2019-05-20T19:05:17.485Z,11.90
2019-05-20T19:07:47.872Z,9.70
2019-05-20T19:10:17.643Z,9.90
2019-05-20T19:12:47.209Z,11.60
2019-05-20T19:15:17.278Z,10.63
2019-05-20T19:17:46.772Z,9.67
2019-05-20T19:20:16.359Z,10.20
2019-05-20T19:22:47.156Z,11.60
2019-05-20T19:25:16.652Z,12.00
2019-05-20T19:27:46.139Z,11.40
2019-05-20T19:30:15.731Z,12.97
2019-05-20T19:32:45.484Z,9.75
2019-05-20T19:35:15.878Z,12.73
2019-05-20T19:37:45.480Z,10.40
2019-05-20T19:40:15.602Z,14.35
2019-05-20T19:42:45.667Z,11.70
2019-05-20T19:45:15.700Z,11.90
2019-05-20T19:47:46.172Z,11.78
2019-05-20T19:50:15.837Z,11.57
2019-05-20T19:52:46.015Z,12.10
2019-05-20T19:55:18.860Z,11.88
2019-05-20T19:57:47.330Z,12.33
2019-05-20T20:00:17.103Z,15.00
2019-05-20T20:02:46.710Z,14.10
2019-05-20T20:05:16.481Z,11.03
2019-05-20T20:07:46.253Z,11.60
2019-05-20T20:10:15.840Z,13.83
2019-05-20T20:12:45.421Z,13.60
2019-05-20T20:15:19.046Z,12.13
2019-05-20T20:17:48.640Z,13.00
2019-05-20T20:20:18.324Z,13.10
2019-05-20T20:22:47.843Z,13.40
2019-05-20T20:25:17.466Z,13.00
2019-05-20T20:27:47.551Z,12.40
2019-05-20T20:30:17.447Z,13.20
2019-05-20T20:32:47.495Z,11.63
2019-05-20T20:35:17.669Z,11.40
2019-05-20T20:37:47.606Z,10.97
2019-05-20T20:40:17.160Z,11.10
2019-05-20T20:42:48.350Z,10.78
2019-05-20T20:45:17.908Z,11.80
2019-05-20T20:47:47.819Z,13.33
2019-05-20T20:50:18.092Z,13.08
2019-05-20T20:52:47.966Z,12.47
2019-05-20T20:55:18.063Z,11.70
2019-05-20T20:57:48.202Z,12.28
2019-05-20T21:00:18.972Z,10.50
2019-05-20T21:02:53.157Z,10.40
2019-05-20T21:05:19.728Z,10.10
2019-05-20T21:07:51.612Z,10.98
2019-05-20T21:10:20.536Z,11.27
2019-05-20T21:12:50.025Z,12.50
2019-05-20T21:15:19.529Z,9.10
2019-05-20T21:17:49.096Z,10.97
2019-05-20T21:20:18.915Z,12.47
2019-05-20T21:22:49.365Z,10.80
2019-05-20T21:25:18.878Z,10.50
2019-05-20T21:27:48.368Z,13.33
2019-05-20T21:30:18.487Z,11.75
2019-05-20T21:32:48.335Z,11.10
2019-05-20T21:35:19.076Z,11.55
2019-05-20T21:37:49.245Z,13.98
2019-05-20T21:40:19.287Z,11.08
2019-05-20T21:42:49.214Z,15.48
2019-05-20T21:45:19.660Z,12.03
2019-05-20T21:47:49.477Z,10.90
2019-05-20T21:50:19.317Z,11.18
2019-05-20T21:52:49.372Z,15.48
2019-05-20T21:55:19.595Z,15.80
2019-05-20T21:57:49.415Z,18.07
2019-05-20T22:00:24.748Z,11.75
2019-05-20T22:02:55.309Z,12.40
2019-05-20T22:05:24.976Z,13.03
2019-05-20T22:07:54.451Z,13.33
2019-05-20T22:10:23.958Z,12.10
2019-05-20T22:12:53.477Z,13.75
2019-05-20T22:15:22.998Z,12.60
2019-05-20T22:17:52.530Z,10.53
2019-05-20T22:20:22.056Z,11.90
2019-05-20T22:23:10.618Z,12.68
2019-05-20T22:25:40.131Z,12.33
2019-05-20T22:28:12.735Z,13.23
2019-05-20T22:30:40.843Z,11.03
2019-05-20T22:33:10.330Z,12.80
2019-05-20T22:35:40.064Z,13.60
2019-05-20T22:38:09.632Z,14.30
2019-05-20T22:40:39.204Z,11.00
2019-05-20T22:43:08.686Z,11.83
2019-05-20T22:45:38.190Z,14.00
2019-05-20T22:48:07.712Z,10.70
2019-05-20T22:50:37.287Z,11.87
2019-05-20T22:53:06.895Z,13.27
2019-05-20T22:55:36.392Z,14.20
2019-05-20T22:58:05.918Z,13.03
2019-05-20T23:00:35.435Z,14.40
2019-05-20T23:03:05.949Z,14.53
2019-05-20T23:05:35.446Z,11.80
2019-05-20T23:08:04.939Z,11.87
2019-05-20T23:10:34.470Z,13.73
2019-05-20T23:13:04.416Z,12.60
2019-05-20T23:15:35.164Z,10.77
2019-05-20T23:18:04.750Z,14.50
2019-05-20T23:20:34.928Z,13.27
2019-05-20T23:23:04.720Z,11.77
2019-05-20T23:25:35.220Z,15.80
2019-05-20T23:28:05.176Z,11.63
2019-05-20T23:30:34.671Z,11.73
2019-05-20T23:33:04.493Z,14.20
2019-05-20T23:35:34.066Z,13.40
2019-05-20T23:38:04.213Z,11.60
2019-05-20T23:40:33.767Z,12.55
2019-05-20T23:43:04.374Z,13.10
2019-05-20T23:45:33.876Z,11.37
2019-05-20T23:48:04.255Z,11.27
2019-05-20T23:50:34.710Z,12.58
2019-05-20T23:53:04.246Z,12.10
2019-05-20T23:55:33.744Z,11.05
2019-05-20T23:58:03.684Z,11.83
